Aérodrome :
LOGIN :

S'inscrire | Disclaimer

   EN    FR    IT 

 










Légende :    VFR   VFR Marginal   IFR   IFR Intensif   IFR Très Intensif
Visi : 
Plafond : 
>= 8 km
>= 3000ft
5 à 8 km
1000 à 3000 ft
1500m à 5 km
500 à 1000 ft
800 à 1500m
200 à 500 ft
< 800m
< 200 ft
Symboles :   Orages  Brouillard  Fortes neiges  Fortes précipitations  Vent > 20 kt
SIGMETs :   Divers  Orages  Givrage  Turbulence  Onde Orograph.  Cendres Volcan.






- Altitude de l'aérodrome : 1115 ft
- Code IATA : GRZ


LOWG - Graz

DERNIER METAR :
  • 191150Z VRB02KT 9999 -SHRA FEW040 SCT050 11/03 Q1015 NOSIG

METARs EXPIRÉS :
  • 191120Z VRB04KT 9999 FEW040 SCT050 11/05 Q1015 NOSIG
  • 191050Z 14006KT 100V170 9999 SCT040 SCT050 10/05 Q1015 NOSIG
  • 191020Z 15005KT 110V190 9999 SCT040 10/04 Q1015 NOSIG
  • 190950Z 16005KT 9999 FEW030 SCT060 09/04 Q1015 NOSIG
  • 190920Z 16005KT 130V190 9999 -RA FEW035 SCT045 BKN060 09/04 Q1015 NOSIG

TAF TAF LOWG
Valide du 19 à 12h jusqu'au 20 à 12h UTC


191115Z 1912/2012 VRB05KT 9999 FEW030 BKN060 TX14/2012Z TN05/2005Z
TEMPO 1912/2006 -RA
TEMPO 2009/2012 35008KT
PROB30
TEMPO 2010/2012 SHRA



MET'MAP, la Météo Aéronautique d'un coup d'oeil ! - Copyright ORBIFLY Décembre 2007 - Disclaimer

ORBIFLY MET'MAP TEAM :

Programmation & Développement : Alexandra Zaïnal
Sur une idée originale de : Baudouin d'Aumeries
Assistance à la programmation : Marc-Olivier Méhu
Soutien technique & logistique : Manuel Goepfert

Contact : metmap@orbifly.com




SOURCES & CREDITS :

   NOAA